x

Fripp Nearshore (frp 2) (41033) Weather Station

8:08am - Tue 26th Sep 2017 All times are EDT. -4 hours from GMT.

  • Wind
    16mph, 20mph gusts
  • Air Temp 75°f
  • Sea Pressure 1019.1mb
  • Fripp Nearshore (frp 2)
  • Fripp Nearshore (frp 2)

More Historic Weather Station data

Upgrade to MSW Pro to gain access to the past 30 days of data for over 8000 Wavebouys and Weather Stations around the globe.

Join

Comparision Forecast

View Surf forecast
   
Tue 09/26 8:08am 16 20 mph 1019.1mb 75f
7:08am 11 16 mph 1017.7mb 74f
6:08am 11 16 mph 1016.5mb 74f
5:08am 11 16 mph 1016.3mb 75f
4:08am 11 13 mph 1015.4mb 76f
3:08am 9 11 mph 1017.1mb 77f
2:08am 9 13 mph 1017.4mb 78f
1:08am 11 16 mph 1017.3mb 77f
12:08am 11 16 mph 1017.5mb 78f
Mon 09/25 11:08pm 13 16 mph 1017.8mb 79f
10:08pm 13 16 mph 1017.2mb 80f
9:08pm 11 16 mph 1017mb 80f
8:08pm 11 16 mph 1016.4mb 80f
7:08pm 13 18 mph 1015.5mb 80f
6:08pm 13 16 mph 1018.3mb 81f
5:08pm 11 13 mph 1018.5mb 81f
4:08pm 11 13 mph 1019.1mb 80f
3:08pm 11 16 mph 1018.3mb 79f
2:08pm 11 13 mph 1018.6mb 78f
1:08pm 11 16 mph 1018.9mb 77f
12:08pm 11 16 mph 1019.8mb 77f
11:08am 16 20 mph 1018mb 76f
10:08am 16 20 mph 1019.1mb 75f
9:08am 16 20 mph 1019.5mb 75f
8:08am 16 20 mph 1018.5mb 75f
7:08am 13 18 mph 1018.3mb 76f
6:08am 16 22 mph 1017.3mb 77f
5:08am 16 20 mph 1017mb 77f
4:08am 16 18 mph 1017.3mb 78f
3:08am 13 18 mph 1017.7mb 78f
2:08am 13 18 mph 1018.6mb 79f
1:08am 11 16 mph 1019mb 79f
12:08am 11 16 mph 1018.6mb 79f
Sun 09/24 11:08pm 9 13 mph 1019.2mb 79f
10:08pm 11 16 mph 1019.8mb 80f
9:08pm 13 18 mph 1019.8mb 80f
8:08pm 16 20 mph 1019.5mb 79f
7:08pm 16 20 mph 1019.3mb 80f
6:08pm 16 18 mph 1018.6mb 80f
5:08pm 16 20 mph 1020.8mb 81f
4:08pm 18 22 mph 1020.5mb 80f
3:08pm 13 18 mph 1020.9mb 80f
2:08pm 16 20 mph 1021.4mb 79f
1:08pm 16 20 mph 1022mb 79f
12:08pm 16 18 mph 1022.4mb 78f
11:08am 16 20 mph 1022.2mb 77f
10:08am 16 20 mph 1022mb 77f
9:08am 20 25 mph 1021.1mb 77f
8:08am 16 20 mph 1020.8mb 77f
7:08am 18 20 mph 1020.3mb 77f
6:08am 16 20 mph 1019.5mb 77f
5:08am 13 18 mph 1018.9mb 78f
4:08am 13 18 mph 1019.8mb 79f
3:08am 16 20 mph 1021.3mb 79f
2:08am 13 18 mph 1021.3mb 79f
1:08am 13 18 mph 1021.3mb 79f
12:08am 13 18 mph 1021.4mb 79f
Sat 09/23 11:08pm 13 18 mph 1021.4mb 79f
10:08pm 13 16 mph 1021.1mb 79f
9:08pm 16 20 mph 1021.2mb 79f
8:08pm 16 20 mph 1020.9mb 80f
7:08pm 16 20 mph 1019.6mb 80f
6:08pm 16 18 mph 1020.6mb 81f
5:08pm 16 22 mph 1020.9mb 81f
4:08pm 16 20 mph 1021.6mb 80f
3:08pm 16 20 mph 1022.5mb 80f
2:08pm 16 20 mph 1022.7mb 80f
1:08pm 16 22 mph 1022.5mb 80f
12:08pm 16 20 mph 1022.3mb 80f
11:08am 13 18 mph 1023mb 79f
10:08am 13 18 mph 1023.8mb 78f
9:08am 13 18 mph 1023.3mb 78f
8:08am 13 16 mph 1022.4mb 78f
7:08am 11 16 mph 1021.1mb 78f
6:08am 11 16 mph 1021mb 79f
5:08am 11 16 mph 1021.1mb 79f
4:08am 11 13 mph 1021.8mb 79f
3:08am 9 11 mph 1021.3mb 79f
2:08am 9 11 mph 1021.4mb 79f
1:08am 9 13 mph 1021.1mb 78f
12:08am 9 13 mph 1021.5mb 79f
Fri 09/22 11:08pm 9 11 mph 1021.2mb 79f
10:08pm 9 11 mph 1021mb 79f
9:08pm 9 13 mph 1020.9mb 79f
8:08pm 11 13 mph 1020.2mb 79f
7:08pm 11 16 mph 1019.2mb 80f
6:08pm 11 16 mph 1020.3mb 81f
5:08pm 9 13 mph 1021.3mb 82f
4:08pm 9 11 mph 1023mb 80f
3:08pm 9 13 mph 1023.7mb 80f
2:08pm 9 13 mph 1023.7mb 80f